createdAt,value
2023-03-26T00:05:05.752Z,18.60
2023-03-26T00:08:11.437Z,18.10
2023-03-26T00:11:27.668Z,20.30
2023-03-26T00:14:35.734Z,20.00
2023-03-26T00:17:42.816Z,20.60
2023-03-26T00:20:50.534Z,21.60
2023-03-26T00:24:03.632Z,26.40
2023-03-26T00:27:16.384Z,27.60
2023-03-26T00:30:24.983Z,27.30
2023-03-26T00:33:39.521Z,27.30
2023-03-26T00:36:47.642Z,25.10
2023-03-26T00:43:20.562Z,24.00
2023-03-26T00:46:32.403Z,26.90
2023-03-26T00:49:39.306Z,23.20
2023-03-26T00:52:48.955Z,22.80
2023-03-26T00:56:03.716Z,20.00
2023-03-26T00:59:10.576Z,17.00
2023-03-26T01:02:18.997Z,17.40
2023-03-26T01:05:47.471Z,14.30
2023-03-26T01:09:04.342Z,13.90
2023-03-26T01:12:14.133Z,11.80
2023-03-26T01:15:23.814Z,11.20
2023-03-26T01:18:34.802Z,11.00
2023-03-26T01:21:40.116Z,9.70
2023-03-26T01:24:54.610Z,9.50
2023-03-26T01:28:01.253Z,7.70
2023-03-26T01:31:21.943Z,8.40
2023-03-26T01:35:14.474Z,6.30
2023-03-26T01:38:38.748Z,5.00
2023-03-26T01:41:59.070Z,4.00
2023-03-26T01:45:39.325Z,3.20
2023-03-26T01:48:50.048Z,2.30
2023-03-26T01:52:08.117Z,2.80
2023-03-26T01:55:15.784Z,2.30
2023-03-26T01:58:45.260Z,2.20
2023-03-26T02:05:47.874Z,1.90
2023-03-26T02:09:02.394Z,1.50
2023-03-26T02:12:07.240Z,1.40
2023-03-26T02:15:12.700Z,1.30
2023-03-26T02:18:17.323Z,1.30
2023-03-26T02:21:23.078Z,0.90
2023-03-26T02:24:29.401Z,0.80
2023-03-26T02:27:36.027Z,1.20
2023-03-26T02:30:45.774Z,0.90
2023-03-26T02:33:50.939Z,1.20
2023-03-26T02:36:53.552Z,1.10
2023-03-26T02:40:00.498Z,1.10
2023-03-26T02:43:11.875Z,0.90
2023-03-26T02:46:16.101Z,0.90
2023-03-26T02:49:44.599Z,1.10
2023-03-26T02:52:58.191Z,1.10
2023-03-26T02:56:05.379Z,1.30
2023-03-26T02:59:15.227Z,1.20
2023-03-26T03:02:26.675Z,1.10
2023-03-26T03:05:34.796Z,1.00
2023-03-26T03:09:05.003Z,1.10
2023-03-26T03:12:16.977Z,1.60
2023-03-26T03:15:32.536Z,1.20
2023-03-26T03:18:39.661Z,1.40
2023-03-26T03:21:44.710Z,1.40
2023-03-26T03:24:52.610Z,1.40
2023-03-26T03:27:59.974Z,1.40
2023-03-26T03:31:04.880Z,1.70
2023-03-26T03:34:13.123Z,1.50
2023-03-26T03:37:23.427Z,1.50
2023-03-26T03:40:31.727Z,1.40
2023-03-26T03:43:46.712Z,1.30
2023-03-26T03:50:00.581Z,1.60
2023-03-26T03:53:05.873Z,2.00
2023-03-26T03:56:20.425Z,2.10
2023-03-26T04:00:00.173Z,1.90
2023-03-26T04:05:22.741Z,1.60
2023-03-26T04:08:35.964Z,2.20
2023-03-26T04:11:53.611Z,2.10
2023-03-26T04:16:02.508Z,1.70
2023-03-26T04:19:47.776Z,2.50
2023-03-26T04:23:38.277Z,1.80
2023-03-26T04:26:54.743Z,2.50
2023-03-26T04:30:11.572Z,2.30
2023-03-26T04:33:19.573Z,2.00
2023-03-26T04:36:32.048Z,2.50
2023-03-26T04:39:40.098Z,2.60
2023-03-26T04:43:12.250Z,1.80
2023-03-26T04:46:54.748Z,2.00
2023-03-26T04:50:15.162Z,2.10
2023-03-26T04:53:23.706Z,2.50
2023-03-26T04:57:00.179Z,2.10
2023-03-26T05:00:30.987Z,2.20
2023-03-26T05:03:42.017Z,2.30
2023-03-26T05:06:49.059Z,2.20
2023-03-26T05:10:11.856Z,2.70
2023-03-26T05:13:28.844Z,2.40
2023-03-26T05:16:41.421Z,2.20
2023-03-26T05:19:47.124Z,2.20
2023-03-26T05:22:57.038Z,2.20
2023-03-26T05:26:11.925Z,2.10
2023-03-26T05:29:17.458Z,1.30
2023-03-26T05:32:27.912Z,2.10
2023-03-26T05:35:37.773Z,1.80
2023-03-26T05:38:49.761Z,2.20
2023-03-26T05:42:24.988Z,2.30
2023-03-26T05:45:53.975Z,2.80
2023-03-26T05:49:04.901Z,2.70
2023-03-26T05:52:18.536Z,2.10
2023-03-26T05:55:57.373Z,2.00
2023-03-26T05:59:26.584Z,2.40
2023-03-26T06:05:39.330Z,2.10
2023-03-26T06:09:20.434Z,2.30
2023-03-26T06:12:31.075Z,2.60
2023-03-26T06:15:40.795Z,2.80
2023-03-26T06:18:57.420Z,2.50
2023-03-26T06:22:20.502Z,2.00
2023-03-26T06:25:45.250Z,1.90
2023-03-26T06:29:25.106Z,1.50
2023-03-26T06:32:41.423Z,1.60
2023-03-26T06:35:51.737Z,1.90
2023-03-26T06:39:00.131Z,1.80
2023-03-26T06:42:19.544Z,1.80
2023-03-26T06:45:56.473Z,1.90
2023-03-26T06:49:14.708Z,1.50
2023-03-26T06:52:45.604Z,2.30
2023-03-26T06:56:40.507Z,2.20
2023-03-26T07:00:16.271Z,1.90
2023-03-26T07:03:54.376Z,1.80
2023-03-26T07:07:21.672Z,1.70
2023-03-26T07:11:07.010Z,1.50
2023-03-26T07:14:38.293Z,1.60
2023-03-26T07:17:53.086Z,1.70
2023-03-26T07:21:11.940Z,1.40
2023-03-26T07:24:19.352Z,2.70
2023-03-26T07:27:57.331Z,1.70
2023-03-26T07:31:47.573Z,2.30
2023-03-26T07:35:29.108Z,2.20
2023-03-26T07:39:22.658Z,1.40
2023-03-26T07:42:58.336Z,2.10
2023-03-26T07:46:31.532Z,1.20
2023-03-26T07:49:51.994Z,1.40
2023-03-26T07:53:07.462Z,1.50
2023-03-26T07:57:11.210Z,1.90
2023-03-26T08:00:54.161Z,1.40
2023-03-26T08:04:55.267Z,2.30
2023-03-26T08:08:52.745Z,2.30
2023-03-26T08:12:46.078Z,2.10
2023-03-26T08:16:11.127Z,2.90
2023-03-26T08:19:38.141Z,2.90
2023-03-26T08:22:50.239Z,2.90
2023-03-26T08:26:12.314Z,3.00
2023-03-26T08:29:27.198Z,3.20
2023-03-26T08:32:31.294Z,4.20
2023-03-26T08:35:42.473Z,4.10
2023-03-26T08:38:49.060Z,3.90
2023-03-26T08:42:03.643Z,4.50
2023-03-26T08:45:34.302Z,5.00
2023-03-26T08:49:02.113Z,5.60
2023-03-26T08:52:40.880Z,7.80
2023-03-26T08:56:29.238Z,7.30
2023-03-26T08:59:57.809Z,7.10
2023-03-26T09:03:07.184Z,8.20
2023-03-26T09:06:18.465Z,7.90
2023-03-26T09:10:02.522Z,7.10
2023-03-26T09:13:31.799Z,7.10
2023-03-26T09:17:15.763Z,8.20
2023-03-26T09:20:38.907Z,8.30
2023-03-26T09:24:25.590Z,7.90
2023-03-26T09:28:15.513Z,9.50
2023-03-26T09:31:45.983Z,8.70
2023-03-26T09:35:13.737Z,9.20
2023-03-26T09:38:46.638Z,11.20
2023-03-26T09:42:17.266Z,9.60
2023-03-26T09:45:43.564Z,9.20
2023-03-26T09:49:27.294Z,8.70
2023-03-26T09:52:46.260Z,8.90
2023-03-26T09:56:21.336Z,8.40
2023-03-26T09:59:51.998Z,8.70
2023-03-26T10:05:20.695Z,9.30
2023-03-26T10:08:52.702Z,7.80
2023-03-26T10:12:25.971Z,9.60
2023-03-26T10:16:00.340Z,8.50
2023-03-26T10:19:52.225Z,9.60
2023-03-26T10:23:23.114Z,8.50
2023-03-26T10:27:08.689Z,8.80
2023-03-26T10:30:51.142Z,9.00
2023-03-26T10:34:34.197Z,7.30
2023-03-26T10:37:57.453Z,9.00
2023-03-26T10:41:23.894Z,8.50
2023-03-26T10:45:06.970Z,6.80
2023-03-26T10:48:21.822Z,6.70
2023-03-26T10:52:06.192Z,7.70
2023-03-26T10:55:48.177Z,6.60
2023-03-26T10:58:59.624Z,7.10
2023-03-26T11:02:29.568Z,5.80
2023-03-26T11:06:12.055Z,5.90
2023-03-26T11:09:26.550Z,5.20
2023-03-26T11:12:49.507Z,5.70
2023-03-26T11:16:02.926Z,6.10
2023-03-26T11:19:18.348Z,4.60
2023-03-26T11:23:07.642Z,4.80
2023-03-26T11:26:17.094Z,4.00
2023-03-26T11:29:40.984Z,4.10
2023-03-26T11:32:58.662Z,3.70
2023-03-26T11:36:08.089Z,3.90
2023-03-26T11:39:20.573Z,3.90
2023-03-26T11:42:26.232Z,3.60
2023-03-26T11:45:37.628Z,2.30
2023-03-26T11:48:50.031Z,2.70
2023-03-26T11:51:57.816Z,2.80
2023-03-26T11:55:03.058Z,2.40
2023-03-26T11:58:47.697Z,2.20
2023-03-26T12:01:58.222Z,2.10
2023-03-26T12:05:20.238Z,2.20
2023-03-26T12:08:40.031Z,2.20
2023-03-26T12:11:53.493Z,1.80
2023-03-26T12:14:59.103Z,1.90
2023-03-26T12:18:40.294Z,2.20
2023-03-26T12:21:53.571Z,2.10
2023-03-26T12:25:22.605Z,1.50
2023-03-26T12:28:33.136Z,1.50
2023-03-26T12:32:13.703Z,1.10
2023-03-26T12:35:28.004Z,1.20
2023-03-26T12:38:39.912Z,1.80
2023-03-26T12:44:43.078Z,1.40
2023-03-26T12:45:23.881Z,1.40
2023-03-26T12:48:31.435Z,1.90
2023-03-26T12:52:01.670Z,2.10
2023-03-26T12:55:52.709Z,2.20
2023-03-26T12:59:38.588Z,1.80
2023-03-26T13:03:39.090Z,2.00
2023-03-26T13:07:09.628Z,3.50
2023-03-26T13:10:31.801Z,3.70
2023-03-26T13:14:02.462Z,3.50
2023-03-26T13:17:19.828Z,2.70
2023-03-26T13:20:48.686Z,3.90
2023-03-26T13:24:07.334Z,4.50
2023-03-26T13:31:54.799Z,2.80
2023-03-26T13:35:43.757Z,1.60
2023-03-26T13:44:33.824Z,1.10
2023-03-26T13:47:50.362Z,1.30
2023-03-26T13:51:15.120Z,2.00
2023-03-26T13:54:50.600Z,1.40
2023-03-26T13:58:58.643Z,1.60
2023-03-26T14:10:35.524Z,1.50
2023-03-26T14:14:17.511Z,1.80
2023-03-26T14:17:51.618Z,1.90
2023-03-26T14:21:35.093Z,1.80
2023-03-26T14:25:18.577Z,1.30
2023-03-26T14:29:31.039Z,1.80
2023-03-26T14:33:13.369Z,1.80
2023-03-26T14:37:07.083Z,1.60
2023-03-26T14:40:53.146Z,1.90
2023-03-26T14:44:21.620Z,1.60
2023-03-26T14:47:31.818Z,2.00
2023-03-26T14:54:52.511Z,1.70
2023-03-26T14:58:31.207Z,1.40
2023-03-26T15:02:41.656Z,1.20
2023-03-26T15:42:45.408Z,2.00
2023-03-26T15:46:19.804Z,1.60
2023-03-26T15:49:51.138Z,1.90
2023-03-26T15:53:45.818Z,2.40
2023-03-26T16:08:11.949Z,2.30
2023-03-26T16:12:00.443Z,2.70
2023-03-26T16:15:48.525Z,3.50
2023-03-26T16:19:56.369Z,4.40
2023-03-26T16:23:23.813Z,4.80
2023-03-26T16:27:13.931Z,4.40
2023-03-26T16:31:37.196Z,5.30
2023-03-26T16:34:56.001Z,4.60
2023-03-26T16:38:20.113Z,4.30
2023-03-26T16:41:32.436Z,4.50
2023-03-26T16:45:15.211Z,5.30
2023-03-26T16:53:57.957Z,4.30
2023-03-26T16:58:11.836Z,5.40
2023-03-26T17:02:14.566Z,3.70
2023-03-26T17:05:59.298Z,3.60
2023-03-26T17:09:33.977Z,4.90
2023-03-26T17:13:08.461Z,5.50
2023-03-26T17:16:27.848Z,5.30
2023-03-26T17:20:36.763Z,6.00
2023-03-26T17:24:15.324Z,6.80
2023-03-26T17:28:01.584Z,4.60
2023-03-26T17:35:14.544Z,5.10
2023-03-26T17:38:49.674Z,4.40
2023-03-26T17:42:40.646Z,4.10
2023-03-26T17:46:03.360Z,3.50
2023-03-26T17:49:23.952Z,3.50
2023-03-26T17:53:17.397Z,3.70
2023-03-26T17:57:13.747Z,3.90
2023-03-26T18:17:23.295Z,5.10
2023-03-26T18:21:03.980Z,6.30
2023-03-26T18:25:03.305Z,7.40
2023-03-26T18:29:22.554Z,6.60
2023-03-26T18:33:04.686Z,5.00
2023-03-26T18:36:48.742Z,8.80
2023-03-26T18:40:40.016Z,7.80
2023-03-26T18:49:00.339Z,7.30
2023-03-26T18:52:30.732Z,8.20
2023-03-26T18:56:33.156Z,8.70
2023-03-26T19:00:17.998Z,7.00
2023-03-26T19:08:42.107Z,9.80
2023-03-26T19:12:29.128Z,8.20
2023-03-26T19:20:21.345Z,6.60
2023-03-26T19:27:57.166Z,5.60
2023-03-26T19:31:44.109Z,6.10
2023-03-26T19:45:17.049Z,5.40
2023-03-26T19:49:39.431Z,4.40
2023-03-26T20:02:02.557Z,3.60
2023-03-26T20:05:29.161Z,3.60
2023-03-26T20:08:40.376Z,3.70
2023-03-26T20:11:46.842Z,3.50
2023-03-26T20:15:29.366Z,3.80
2023-03-26T20:18:39.255Z,3.50
2023-03-26T20:21:47.930Z,4.40
2023-03-26T20:24:54.261Z,3.70
2023-03-26T20:28:10.562Z,4.90
2023-03-26T20:31:41.912Z,4.20
2023-03-26T20:34:51.458Z,5.00
2023-03-26T20:37:56.708Z,5.30
2023-03-26T20:41:27.398Z,4.60
2023-03-26T20:44:48.240Z,4.80
2023-03-26T20:47:54.787Z,5.00
2023-03-26T20:50:57.403Z,4.50
2023-03-26T20:54:24.032Z,4.30
2023-03-26T20:57:34.512Z,4.50
2023-03-26T21:00:43.299Z,4.30
2023-03-26T21:04:03.998Z,3.90
2023-03-26T21:07:18.340Z,3.70
2023-03-26T21:10:33.830Z,3.50
2023-03-26T21:14:03.940Z,3.70
2023-03-26T21:17:16.346Z,3.50
2023-03-26T21:20:28.245Z,3.50
2023-03-26T21:23:57.528Z,3.00
2023-03-26T21:27:37.301Z,3.40
2023-03-26T21:30:52.142Z,3.10
2023-03-26T21:34:03.525Z,3.80
2023-03-26T21:37:11.035Z,3.30
2023-03-26T21:40:28.614Z,3.40
2023-03-26T21:43:45.086Z,3.60
2023-03-26T21:46:52.200Z,3.20
2023-03-26T21:49:58.820Z,2.80
2023-03-26T21:53:05.185Z,3.10
2023-03-26T21:56:32.512Z,3.00
2023-03-26T22:00:23.678Z,3.10
2023-03-26T22:05:48.538Z,3.20
2023-03-26T22:08:52.418Z,3.40
2023-03-26T22:11:57.836Z,2.90
2023-03-26T22:15:16.288Z,3.20
2023-03-26T22:18:25.688Z,3.30
2023-03-26T22:21:33.432Z,4.10
2023-03-26T22:24:40.523Z,4.70
2023-03-26T22:27:47.426Z,4.90
2023-03-26T22:30:52.364Z,6.00
2023-03-26T22:33:59.516Z,4.10
2023-03-26T22:37:05.524Z,3.70
2023-03-26T22:40:13.189Z,4.60
2023-03-26T22:43:19.855Z,4.70
2023-03-26T22:46:23.090Z,4.20
2023-03-26T22:49:31.011Z,3.40
2023-03-26T22:52:42.781Z,3.60
2023-03-26T22:55:50.929Z,3.40
2023-03-26T22:59:00.915Z,3.70
2023-03-26T23:02:09.995Z,3.00
2023-03-26T23:05:18.212Z,3.40
2023-03-26T23:08:24.936Z,3.10
2023-03-26T23:11:32.945Z,2.70
2023-03-26T23:14:35.998Z,2.70
2023-03-26T23:17:41.853Z,2.90
2023-03-26T23:20:58.195Z,3.30
2023-03-26T23:24:04.192Z,3.20
